createdAt,value
2023-03-04T00:00:51.060Z,39.60
2023-03-04T00:02:52.871Z,39.60
2023-03-04T00:04:54.759Z,39.60
2023-03-04T00:06:56.738Z,39.50
2023-03-04T00:08:58.603Z,39.60
2023-03-04T00:11:00.634Z,39.60
2023-03-04T00:13:02.366Z,39.50
2023-03-04T00:15:04.373Z,39.50
2023-03-04T00:17:06.163Z,39.50
2023-03-04T00:19:08.014Z,39.50
2023-03-04T00:21:09.826Z,39.50
2023-03-04T00:23:11.633Z,39.50
2023-03-04T00:25:13.293Z,39.50
2023-03-04T00:27:15.118Z,39.50
2023-03-04T00:29:16.856Z,39.50
2023-03-04T00:31:18.571Z,39.50
2023-03-04T00:33:21.331Z,39.40
2023-03-04T00:35:23.139Z,39.50
2023-03-04T00:37:25.003Z,39.50
2023-03-04T00:39:30.124Z,39.60
2023-03-04T00:41:31.925Z,39.50
2023-03-04T00:43:33.714Z,39.50
2023-03-04T00:45:35.667Z,39.50
2023-03-04T00:47:37.458Z,39.50
2023-03-04T00:49:39.250Z,39.50
2023-03-04T00:51:41.013Z,39.40
2023-03-04T00:53:42.835Z,39.50
2023-03-04T00:55:44.687Z,39.50
2023-03-04T00:57:46.442Z,39.50
2023-03-04T00:59:48.410Z,39.40
2023-03-04T01:01:50.167Z,39.40
2023-03-04T01:03:52.563Z,39.50
2023-03-04T01:05:54.339Z,39.50
2023-03-04T01:07:56.791Z,39.50
2023-03-04T01:09:58.682Z,39.60
2023-03-04T01:12:00.512Z,39.50
2023-03-04T01:14:02.286Z,39.50
2023-03-04T01:16:04.341Z,39.40
2023-03-04T01:18:07.080Z,39.50
2023-03-04T01:20:10.562Z,39.40
2023-03-04T01:22:12.408Z,39.40
2023-03-04T01:24:14.182Z,39.50
2023-03-04T01:26:15.982Z,39.50
2023-03-04T01:28:17.903Z,39.40
2023-03-04T01:30:19.747Z,39.40
2023-03-04T01:32:21.599Z,39.50
2023-03-04T01:34:23.812Z,39.50
2023-03-04T01:36:25.638Z,39.60
2023-03-04T01:38:27.393Z,39.50
2023-03-04T01:40:29.170Z,39.50
2023-03-04T01:42:33.558Z,39.50
2023-03-04T01:44:35.345Z,39.60
2023-03-04T01:46:37.496Z,39.50
2023-03-04T01:48:39.514Z,39.50
2023-03-04T01:50:41.398Z,39.50
2023-03-04T01:52:43.103Z,39.40
2023-03-04T01:54:44.859Z,39.50
2023-03-04T01:56:47.789Z,39.40
2023-03-04T01:59:08.098Z,39.50
2023-03-04T02:01:14.058Z,39.40
2023-03-04T02:03:17.710Z,39.50
2023-03-04T02:05:19.899Z,39.50
2023-03-04T02:07:21.609Z,39.50
2023-03-04T02:09:23.680Z,39.40
2023-03-04T02:11:25.465Z,39.30
2023-03-04T02:13:27.407Z,39.40
2023-03-04T02:15:29.974Z,39.40
2023-03-04T02:17:32.212Z,39.40
2023-03-04T02:19:51.283Z,39.40
2023-03-04T02:21:53.061Z,39.40
2023-03-04T02:24:05.455Z,39.30
2023-03-04T02:26:07.321Z,39.40
2023-03-04T02:28:09.148Z,39.40
2023-03-04T02:30:11.721Z,39.40
2023-03-04T02:32:14.146Z,39.30
2023-03-04T02:34:21.800Z,39.40
2023-03-04T02:36:23.980Z,39.50
2023-03-04T02:38:26.018Z,39.40
2023-03-04T02:40:33.333Z,39.40
2023-03-04T02:42:35.092Z,39.30
2023-03-04T02:44:39.417Z,39.40
2023-03-04T02:46:41.288Z,39.30
2023-03-04T02:48:43.590Z,39.40
2023-03-04T02:50:47.237Z,39.40
2023-03-04T02:52:49.018Z,39.40
2023-03-04T02:54:50.893Z,39.40
2023-03-04T02:56:54.334Z,39.40
2023-03-04T02:58:57.733Z,39.30
2023-03-04T03:01:00.389Z,39.30
2023-03-04T03:03:03.483Z,39.40
2023-03-04T03:05:05.574Z,39.40
2023-03-04T03:07:08.051Z,39.40
2023-03-04T03:09:10.474Z,39.30
2023-03-04T03:11:12.297Z,39.30
2023-03-04T03:13:17.118Z,39.40
2023-03-04T03:15:19.754Z,39.30
2023-03-04T03:17:21.662Z,39.30
2023-03-04T03:19:23.407Z,39.30
2023-03-04T03:21:26.211Z,39.40
2023-03-04T03:23:28.062Z,39.30
2023-03-04T03:25:29.921Z,39.40
2023-03-04T03:27:31.756Z,39.30
2023-03-04T03:29:33.697Z,39.30
2023-03-04T03:31:35.546Z,39.30
2023-03-04T03:33:37.295Z,39.30
2023-03-04T03:35:39.145Z,39.30
2023-03-04T03:37:41.020Z,39.30
2023-03-04T03:39:42.725Z,39.30
2023-03-04T03:41:44.581Z,39.30
2023-03-04T03:43:46.329Z,39.30
2023-03-04T03:45:48.176Z,39.30
2023-03-04T03:47:50.000Z,39.30
2023-03-04T03:49:51.799Z,39.20
2023-03-04T03:51:53.633Z,39.20
2023-03-04T03:53:55.340Z,39.10
2023-03-04T03:55:57.133Z,39.20
2023-03-04T03:57:58.937Z,39.20
2023-03-04T04:00:00.650Z,39.30
2023-03-04T04:02:02.479Z,39.30
2023-03-04T04:04:04.369Z,39.30
2023-03-04T04:06:06.394Z,39.20
2023-03-04T04:08:10.141Z,39.20
2023-03-04T04:10:11.978Z,39.20
2023-03-04T04:12:14.564Z,39.20
2023-03-04T04:14:16.393Z,39.20
2023-03-04T04:16:18.166Z,39.10
2023-03-04T04:18:19.922Z,39.20
2023-03-04T04:20:21.721Z,39.20
2023-03-04T04:22:23.508Z,39.10
2023-03-04T04:24:25.432Z,39.20
2023-03-04T04:26:27.262Z,39.10
2023-03-04T04:28:29.068Z,39.10
2023-03-04T04:30:30.888Z,39.10
2023-03-04T04:32:32.785Z,39.10
2023-03-04T04:34:34.645Z,39.10
2023-03-04T04:36:36.466Z,39.10
2023-03-04T04:38:38.276Z,39.10
2023-03-04T04:40:40.028Z,39.00
2023-03-04T04:42:41.848Z,39.10
2023-03-04T04:44:43.619Z,39.10
2023-03-04T04:46:45.378Z,39.10
2023-03-04T04:48:47.408Z,39.10
2023-03-04T04:50:53.971Z,39.10
2023-03-04T04:52:55.765Z,39.00
2023-03-04T04:54:57.524Z,39.00
2023-03-04T04:56:59.308Z,39.10
2023-03-04T04:59:03.298Z,39.00
2023-03-04T05:01:05.249Z,39.20
2023-03-04T05:03:07.003Z,39.00
2023-03-04T05:05:09.018Z,39.10
2023-03-04T05:07:10.797Z,39.00
2023-03-04T05:09:12.915Z,39.10
2023-03-04T05:11:15.097Z,39.10
2023-03-04T05:13:16.867Z,39.00
2023-03-04T05:15:18.612Z,39.00
2023-03-04T05:17:20.405Z,39.00
2023-03-04T05:19:22.155Z,38.90
2023-03-04T05:21:24.034Z,38.90
2023-03-04T05:23:26.905Z,38.90
2023-03-04T05:25:28.632Z,38.90
2023-03-04T05:27:30.423Z,39.10
2023-03-04T05:29:32.154Z,38.90
2023-03-04T05:31:33.945Z,39.00
2023-03-04T05:33:35.737Z,38.80
2023-03-04T05:35:38.337Z,38.90
2023-03-04T05:37:40.315Z,39.00
2023-03-04T05:39:42.115Z,39.00
2023-03-04T05:41:43.855Z,38.90
2023-03-04T05:43:45.638Z,39.10
2023-03-04T05:45:49.088Z,38.90
2023-03-04T05:47:50.884Z,38.80
2023-03-04T05:49:52.721Z,38.90
2023-03-04T05:51:54.447Z,38.90
2023-03-04T05:53:56.272Z,38.90
2023-03-04T05:55:58.289Z,38.70
2023-03-04T05:58:00.156Z,38.90
2023-03-04T06:00:02.216Z,38.80
2023-03-04T06:02:14.140Z,38.90
2023-03-04T06:04:16.113Z,38.70
2023-03-04T06:06:18.192Z,38.60
2023-03-04T06:08:20.072Z,38.80
2023-03-04T06:10:21.859Z,38.70
2023-03-04T06:12:23.686Z,39.00
2023-03-04T06:14:25.461Z,38.80
2023-03-04T06:16:27.408Z,38.80
2023-03-04T06:18:29.573Z,38.70
2023-03-04T06:20:33.526Z,39.00
2023-03-04T06:22:35.330Z,38.70
2023-03-04T06:24:37.119Z,38.90
2023-03-04T06:26:38.953Z,38.60
2023-03-04T06:28:43.900Z,38.80
2023-03-04T06:30:45.686Z,38.60
2023-03-04T06:32:47.617Z,38.70
2023-03-04T06:34:49.427Z,38.90
2023-03-04T06:36:51.264Z,38.80
2023-03-04T06:38:53.025Z,38.60
2023-03-04T06:40:57.194Z,38.80
2023-03-04T06:42:59.273Z,38.60
2023-03-04T06:45:01.057Z,38.70
2023-03-04T06:47:05.154Z,38.70
2023-03-04T06:49:06.933Z,38.60
2023-03-04T06:51:09.480Z,38.70
2023-03-04T06:53:11.291Z,38.60
2023-03-04T06:55:13.054Z,38.70
2023-03-04T06:57:14.827Z,38.70
2023-03-04T06:59:16.625Z,38.60
2023-03-04T07:01:25.566Z,38.70
2023-03-04T07:03:27.338Z,38.60
2023-03-04T07:05:29.133Z,38.80
2023-03-04T07:07:30.888Z,38.70
2023-03-04T07:09:32.655Z,38.60
2023-03-04T07:11:34.414Z,38.60
2023-03-04T07:13:36.293Z,38.60
2023-03-04T07:15:38.147Z,38.60
2023-03-04T07:17:39.942Z,38.70
2023-03-04T07:19:41.680Z,38.70
2023-03-04T07:21:43.518Z,38.70
2023-03-04T07:23:45.328Z,38.60
2023-03-04T07:25:48.623Z,38.70
2023-03-04T07:27:50.415Z,38.60
2023-03-04T07:29:52.280Z,38.70
2023-03-04T07:31:54.162Z,38.80
2023-03-04T07:33:56.982Z,38.60
2023-03-04T07:35:59.654Z,38.70
2023-03-04T07:38:01.445Z,38.50
2023-03-04T07:40:03.402Z,38.60
2023-03-04T07:42:05.162Z,38.60
2023-03-04T07:44:09.068Z,38.70
2023-03-04T07:46:11.484Z,39.00
2023-03-04T07:48:13.368Z,38.90
2023-03-04T07:50:17.881Z,38.60
2023-03-04T07:52:19.966Z,38.70
2023-03-04T07:54:21.762Z,38.60
2023-03-04T07:56:26.601Z,38.70
2023-03-04T07:58:28.403Z,38.50
2023-03-04T08:00:30.224Z,38.40
2023-03-04T08:02:32.045Z,38.00
2023-03-04T08:04:33.904Z,38.00
2023-03-04T08:06:35.874Z,38.10
2023-03-04T08:08:38.015Z,37.70
2023-03-04T08:10:39.810Z,37.80
2023-03-04T08:12:41.611Z,37.70
2023-03-04T08:14:43.441Z,37.70
2023-03-04T08:16:45.253Z,37.60
2023-03-04T08:18:48.669Z,37.50
2023-03-04T08:20:50.444Z,37.40
2023-03-04T08:22:52.286Z,37.40
2023-03-04T08:24:54.076Z,37.40
2023-03-04T08:26:55.839Z,37.60
2023-03-04T08:28:57.847Z,37.60
2023-03-04T08:30:59.660Z,37.50
2023-03-04T08:33:02.024Z,37.30
2023-03-04T08:35:03.936Z,37.40
2023-03-04T08:37:05.714Z,37.40
2023-03-04T08:39:07.536Z,37.40
2023-03-04T08:41:09.283Z,37.50
2023-03-04T08:43:11.039Z,37.40
2023-03-04T08:45:12.868Z,37.60
2023-03-04T08:47:14.709Z,37.50
2023-03-04T08:49:16.522Z,37.60
2023-03-04T08:51:18.474Z,37.50
2023-03-04T08:53:20.321Z,37.70
2023-03-04T08:55:22.144Z,38.00
2023-03-04T08:57:24.147Z,37.80
2023-03-04T08:59:25.909Z,37.90
2023-03-04T09:01:27.911Z,37.80
2023-03-04T09:03:30.120Z,37.70
2023-03-04T09:05:32.214Z,37.80
2023-03-04T09:07:34.014Z,37.80
2023-03-04T09:09:35.794Z,38.70
2023-03-04T09:11:37.626Z,37.70
2023-03-04T09:13:39.394Z,38.20
2023-03-04T09:15:45.924Z,38.10
2023-03-04T09:17:47.845Z,38.00
2023-03-04T09:19:49.574Z,38.00
2023-03-04T09:21:51.371Z,38.00
2023-03-04T09:23:53.136Z,38.10
2023-03-04T09:25:54.909Z,38.70
2023-03-04T09:27:56.743Z,38.10
2023-03-04T09:29:58.527Z,38.70
2023-03-04T09:32:00.359Z,39.40
2023-03-04T09:34:02.444Z,39.70
2023-03-04T09:36:04.332Z,39.30
2023-03-04T09:38:06.140Z,39.80
2023-03-04T09:40:09.190Z,39.90
2023-03-04T09:42:24.965Z,39.60
2023-03-04T09:44:40.567Z,39.70
2023-03-04T09:46:43.265Z,39.80
2023-03-04T09:48:51.899Z,39.10
2023-03-04T09:50:56.444Z,39.10
2023-03-04T09:53:05.981Z,39.20
2023-03-04T09:55:34.078Z,39.20
2023-03-04T09:57:38.937Z,39.30
2023-03-04T09:59:44.252Z,39.50
2023-03-04T10:01:48.627Z,39.30
2023-03-04T10:04:13.735Z,40.00
2023-03-04T10:06:19.468Z,39.00
2023-03-04T10:08:39.741Z,39.30
2023-03-04T10:10:41.709Z,39.30
2023-03-04T10:12:45.801Z,39.10
2023-03-04T10:14:47.527Z,39.10
2023-03-04T10:16:52.388Z,39.20
2023-03-04T10:19:02.390Z,39.20
2023-03-04T10:21:22.820Z,39.10
2023-03-04T10:23:26.043Z,39.40
2023-03-04T10:25:31.941Z,39.30
2023-03-04T10:27:34.086Z,39.50
2023-03-04T10:29:36.466Z,39.40
2023-03-04T10:31:38.553Z,39.30
2023-03-04T10:33:40.766Z,39.40
2023-03-04T10:35:44.929Z,39.50
2023-03-04T10:37:48.887Z,39.50
2023-03-04T10:39:50.596Z,39.40
2023-03-04T10:41:57.053Z,39.40
2023-03-04T10:44:03.728Z,39.50
2023-03-04T10:46:05.529Z,39.50
2023-03-04T10:48:17.547Z,39.60
2023-03-04T10:50:23.151Z,39.70
2023-03-04T10:52:32.508Z,39.70
2023-03-04T10:54:40.595Z,39.70
2023-03-04T10:56:43.458Z,39.70
2023-03-04T10:58:45.209Z,39.70
2023-03-04T11:01:00.771Z,39.70
2023-03-04T11:03:21.413Z,39.70
2023-03-04T11:05:25.175Z,40.50
2023-03-04T11:07:27.609Z,39.80
2023-03-04T11:09:30.625Z,39.80
2023-03-04T11:11:38.806Z,39.80
2023-03-04T11:13:50.166Z,39.90
2023-03-04T11:15:56.880Z,40.10
2023-03-04T11:18:02.095Z,40.00
2023-03-04T11:20:18.346Z,40.10
2023-03-04T11:22:21.722Z,40.20
2023-03-04T11:24:29.195Z,40.10
2023-03-04T11:26:35.262Z,40.20
2023-03-04T11:28:37.003Z,40.20
2023-03-04T11:30:41.538Z,40.20
2023-03-04T11:32:45.679Z,40.10
2023-03-04T11:34:51.763Z,40.10
2023-03-04T11:36:56.598Z,40.10
2023-03-04T11:38:58.889Z,40.10
2023-03-04T11:41:22.214Z,40.10
2023-03-04T11:43:23.939Z,40.10
2023-03-04T11:45:36.981Z,40.30
2023-03-04T11:47:57.574Z,40.20
2023-03-04T11:50:05.483Z,40.20
2023-03-04T11:52:22.422Z,40.20
2023-03-04T11:54:43.398Z,40.20
2023-03-04T11:56:50.255Z,40.20
2023-03-04T11:59:00.961Z,40.20
2023-03-04T12:01:09.973Z,40.20
2023-03-04T12:03:18.443Z,40.30
2023-03-04T12:05:26.135Z,40.30
2023-03-04T12:07:40.578Z,40.40
2023-03-04T12:09:54.566Z,40.40
2023-03-04T12:12:15.150Z,40.60
2023-03-04T12:14:32.001Z,40.50
2023-03-04T12:16:52.513Z,41.00
2023-03-04T12:19:12.408Z,40.20
2023-03-04T12:21:17.034Z,40.20
2023-03-04T12:23:37.388Z,40.10
2023-03-04T12:25:43.436Z,39.90
2023-03-04T12:28:00.468Z,40.10
2023-03-04T12:30:02.206Z,39.90
2023-03-04T12:32:22.790Z,39.80
2023-03-04T12:34:28.887Z,39.80
2023-03-04T12:36:50.864Z,39.80
2023-03-04T12:41:29.012Z,39.80
2023-03-04T12:43:36.216Z,39.80
2023-03-04T12:45:54.689Z,39.90
2023-03-04T12:48:11.727Z,39.90
2023-03-04T12:50:16.631Z,40.00
2023-03-04T12:52:37.243Z,40.00
2023-03-04T12:54:46.545Z,40.00
2023-03-04T12:57:02.551Z,39.90
2023-03-04T12:59:05.620Z,40.00
2023-03-04T13:01:13.239Z,40.00
2023-03-04T13:03:15.728Z,40.00
2023-03-04T13:05:32.138Z,40.10
2023-03-04T13:07:57.223Z,40.10
2023-03-04T13:10:02.935Z,40.10
2023-03-04T13:12:31.183Z,40.10
2023-03-04T13:14:35.431Z,40.10
2023-03-04T13:16:41.510Z,40.10
2023-03-04T13:18:43.233Z,39.90
2023-03-04T13:20:45.037Z,39.80
2023-03-04T13:22:54.691Z,39.70
2023-03-04T13:24:57.371Z,39.60
2023-03-04T13:26:59.201Z,39.50
2023-03-04T13:29:10.235Z,39.50
2023-03-04T13:31:25.851Z,39.50
2023-03-04T13:33:27.667Z,39.60
2023-03-04T13:35:47.689Z,39.50
2023-03-04T13:37:59.388Z,39.50
2023-03-04T13:40:20.613Z,39.50
2023-03-04T13:42:39.482Z,39.50
2023-03-04T13:44:44.040Z,39.40
2023-03-04T13:46:46.010Z,39.30
2023-03-04T13:48:50.810Z,39.40
2023-03-04T13:50:52.713Z,39.30
2023-03-04T13:52:54.525Z,39.40
2023-03-04T13:55:15.059Z,39.30
2023-03-04T13:57:18.045Z,39.40
2023-03-04T13:59:22.637Z,39.30
2023-03-04T14:01:26.468Z,39.30
2023-03-04T14:03:29.481Z,39.30
2023-03-04T14:05:31.242Z,39.20
2023-03-04T14:07:34.163Z,39.30
2023-03-04T14:09:35.921Z,39.20
2023-03-04T14:11:39.611Z,39.20
2023-03-04T14:13:41.493Z,39.10
2023-03-04T14:15:53.920Z,39.20
2023-03-04T14:18:05.416Z,39.20
2023-03-04T14:20:39.610Z,39.20
2023-03-04T14:22:41.546Z,39.20
2023-03-04T14:24:55.026Z,39.20
2023-03-04T14:27:13.765Z,39.50
2023-03-04T14:29:22.972Z,41.40
2023-03-04T14:31:25.931Z,41.40
2023-03-04T14:33:29.397Z,45.80
2023-03-04T14:35:32.110Z,39.20
2023-03-04T14:37:36.999Z,39.20
2023-03-04T14:39:38.766Z,39.10
2023-03-04T14:41:41.676Z,39.10
2023-03-04T14:43:46.495Z,39.10
2023-03-04T14:45:52.464Z,39.00
2023-03-04T14:47:56.306Z,39.10
2023-03-04T14:49:58.094Z,39.10
2023-03-04T14:51:59.866Z,39.10
2023-03-04T14:54:01.614Z,39.80
2023-03-04T14:56:07.567Z,39.10
2023-03-04T14:58:29.596Z,39.20
2023-03-04T15:00:32.546Z,39.20
2023-03-04T15:02:40.772Z,39.10
2023-03-04T15:04:42.659Z,39.20
2023-03-04T15:06:52.254Z,39.10
2023-03-04T15:08:58.434Z,39.20
2023-03-04T15:11:01.374Z,39.10
2023-03-04T15:13:04.918Z,39.10
2023-03-04T15:15:25.626Z,39.10
2023-03-04T15:17:30.374Z,39.10
2023-03-04T15:19:32.182Z,39.20
2023-03-04T15:21:33.945Z,39.20
2023-03-04T15:23:35.716Z,39.20
2023-03-04T15:25:37.500Z,39.30
2023-03-04T15:27:39.319Z,39.40
2023-03-04T15:29:41.078Z,39.30
2023-03-04T15:31:42.892Z,39.30
2023-03-04T15:33:44.815Z,39.30
2023-03-04T15:35:52.193Z,39.30
2023-03-04T15:37:55.446Z,39.40
2023-03-04T15:39:57.916Z,39.40
2023-03-04T15:42:00.620Z,39.50
2023-03-04T15:44:02.323Z,39.40
2023-03-04T15:46:04.209Z,39.50
2023-03-04T15:48:06.741Z,39.50
2023-03-04T15:50:08.938Z,39.60
2023-03-04T15:52:15.155Z,39.50
2023-03-04T15:54:16.883Z,39.50
2023-03-04T15:56:20.188Z,39.50
2023-03-04T15:58:22.107Z,39.50
2023-03-04T16:00:24.138Z,39.60
2023-03-04T16:02:26.441Z,39.60
2023-03-04T16:04:28.247Z,39.60
2023-03-04T16:06:31.170Z,39.60
2023-03-04T16:08:32.994Z,39.60
2023-03-04T16:10:34.794Z,39.60
2023-03-04T16:12:36.653Z,39.60
2023-03-04T16:14:38.825Z,39.70
2023-03-04T16:16:41.184Z,39.70
2023-03-04T16:18:43.091Z,39.70
2023-03-04T16:20:46.128Z,39.70
2023-03-04T16:22:49.687Z,39.70
2023-03-04T16:24:51.838Z,39.70
2023-03-04T16:26:53.646Z,39.70
2023-03-04T16:28:58.220Z,39.70
2023-03-04T16:31:00.079Z,39.70
2023-03-04T16:33:01.897Z,39.70
2023-03-04T16:35:03.910Z,39.70
2023-03-04T16:37:07.629Z,39.80
2023-03-04T16:39:14.295Z,39.80
2023-03-04T16:41:16.804Z,39.80
2023-03-04T16:43:18.623Z,39.80
2023-03-04T16:45:29.402Z,39.80
2023-03-04T16:47:31.178Z,39.90
2023-03-04T16:49:32.992Z,39.90
2023-03-04T16:51:39.584Z,39.90
2023-03-04T16:53:43.028Z,39.80
2023-03-04T16:55:44.743Z,39.80
2023-03-04T16:57:46.612Z,39.90
2023-03-04T16:59:48.435Z,39.90
2023-03-04T17:01:50.260Z,39.90
2023-03-04T17:03:52.588Z,40.00
2023-03-04T17:05:54.328Z,40.00
2023-03-04T17:07:56.082Z,39.90
2023-03-04T17:09:57.801Z,39.90
2023-03-04T17:12:00.125Z,39.90
2023-03-04T17:14:02.041Z,40.00
2023-03-04T17:16:04.376Z,40.00
2023-03-04T17:18:06.189Z,40.00
2023-03-04T17:20:10.585Z,40.00
2023-03-04T17:22:12.381Z,40.00
2023-03-04T17:24:14.162Z,40.00
2023-03-04T17:26:16.297Z,40.10
2023-03-04T17:28:18.115Z,40.00
2023-03-04T17:30:19.918Z,40.00
2023-03-04T17:32:21.870Z,40.10
2023-03-04T17:34:23.631Z,40.10
2023-03-04T17:36:25.453Z,40.00
2023-03-04T17:38:27.255Z,40.10
2023-03-04T17:40:28.977Z,40.10
2023-03-04T17:42:30.799Z,40.10
2023-03-04T17:44:32.574Z,40.10
2023-03-04T17:46:34.409Z,40.00
2023-03-04T17:48:36.470Z,40.00
2023-03-04T17:50:38.230Z,39.90
2023-03-04T17:52:40.103Z,40.00
2023-03-04T17:54:41.905Z,40.00
2023-03-04T17:56:43.702Z,40.00
2023-03-04T17:58:45.457Z,40.00
2023-03-04T18:00:47.756Z,40.00
2023-03-04T18:02:49.578Z,39.90
2023-03-04T18:04:51.429Z,39.90
2023-03-04T18:06:53.219Z,39.90
2023-03-04T18:08:55.420Z,39.90
2023-03-04T18:10:57.142Z,39.90
2023-03-04T18:12:59.272Z,39.90
2023-03-04T18:15:01.074Z,39.80
2023-03-04T18:17:02.888Z,39.90
2023-03-04T18:19:04.701Z,39.90
2023-03-04T18:21:06.641Z,39.80
2023-03-04T18:23:08.725Z,39.80
2023-03-04T18:25:10.869Z,39.80
2023-03-04T18:27:12.634Z,39.80
2023-03-04T18:29:14.745Z,39.80
2023-03-04T18:31:23.685Z,39.80
2023-03-04T18:33:25.515Z,39.80
2023-03-04T18:35:27.547Z,39.80
2023-03-04T18:37:29.322Z,39.80
2023-03-04T18:39:31.065Z,39.80
2023-03-04T18:41:33.019Z,39.80
2023-03-04T18:43:34.904Z,39.70
2023-03-04T18:45:36.704Z,39.80
2023-03-04T18:47:39.582Z,39.80
2023-03-04T18:49:42.451Z,39.80
2023-03-04T18:51:44.242Z,39.80
2023-03-04T18:53:46.041Z,39.80
2023-03-04T18:55:47.763Z,39.70
2023-03-04T18:57:51.338Z,39.80
2023-03-04T18:59:55.164Z,39.70
2023-03-04T19:01:57.953Z,39.70
2023-03-04T19:04:00.640Z,39.70
2023-03-04T19:06:02.424Z,39.60
2023-03-04T19:08:04.335Z,39.70
2023-03-04T19:10:06.349Z,39.70
2023-03-04T19:12:08.111Z,39.70
2023-03-04T19:14:09.895Z,39.70
2023-03-04T19:16:11.678Z,39.70
2023-03-04T19:18:13.654Z,39.60
2023-03-04T19:20:16.074Z,39.60
2023-03-04T19:22:17.898Z,39.60
2023-03-04T19:24:19.735Z,39.60
2023-03-04T19:26:21.526Z,39.70
2023-03-04T19:28:23.255Z,39.60
2023-03-04T19:30:25.022Z,39.60
2023-03-04T19:32:27.049Z,39.60
2023-03-04T19:34:28.878Z,40.30
2023-03-04T19:36:31.407Z,39.60
2023-03-04T19:38:33.728Z,39.60
2023-03-04T19:40:38.082Z,39.60
2023-03-04T19:42:39.871Z,39.60
2023-03-04T19:44:43.816Z,39.60
2023-03-04T19:46:46.598Z,39.60
2023-03-04T19:48:48.400Z,39.60
2023-03-04T19:50:50.157Z,39.60
2023-03-04T19:52:51.968Z,39.60
2023-03-04T19:54:53.705Z,39.60
2023-03-04T19:56:55.551Z,39.60
2023-03-04T19:58:57.725Z,39.60
2023-03-04T20:00:59.543Z,39.60
2023-03-04T20:03:01.247Z,39.60
2023-03-04T20:05:03.307Z,39.60
2023-03-04T20:07:05.070Z,39.60
2023-03-04T20:09:07.116Z,39.60
2023-03-04T20:11:12.180Z,39.60
2023-03-04T20:13:13.937Z,39.60
2023-03-04T20:15:15.854Z,39.60
2023-03-04T20:17:17.787Z,39.60
2023-03-04T20:19:19.585Z,39.50
2023-03-04T20:21:21.407Z,39.60
2023-03-04T20:23:23.150Z,39.70
2023-03-04T20:25:24.932Z,39.70
2023-03-04T20:27:26.716Z,39.70
2023-03-04T20:29:28.461Z,39.70
2023-03-04T20:31:32.016Z,39.60
2023-03-04T20:33:33.834Z,39.50
2023-03-04T20:35:35.653Z,39.60
2023-03-04T20:37:37.483Z,39.60
2023-03-04T20:39:39.238Z,39.60
2023-03-04T20:41:41.025Z,39.70
2023-03-04T20:43:42.994Z,39.60
2023-03-04T20:45:44.755Z,39.50
2023-03-04T20:47:46.507Z,39.50
2023-03-04T20:49:48.313Z,39.50
2023-03-04T20:51:50.779Z,39.60
2023-03-04T20:53:52.549Z,39.50
2023-03-04T20:55:54.343Z,39.50
2023-03-04T20:57:56.088Z,39.50
2023-03-04T20:59:57.792Z,39.50
2023-03-04T21:01:59.692Z,39.50
2023-03-04T21:04:01.892Z,39.60
2023-03-04T21:06:04.392Z,39.50
2023-03-04T21:08:06.161Z,39.50
2023-03-04T21:10:08.143Z,39.50
2023-03-04T21:12:10.024Z,39.50
2023-03-04T21:14:30.803Z,39.50
2023-03-04T21:16:32.570Z,39.50
2023-03-04T21:18:34.354Z,39.50
2023-03-04T21:20:36.146Z,39.50
2023-03-04T21:22:37.965Z,39.40
2023-03-04T21:24:39.790Z,39.50
2023-03-04T21:26:41.703Z,39.40
2023-03-04T21:28:43.534Z,39.40
2023-03-04T21:30:45.349Z,39.40
2023-03-04T21:32:47.141Z,39.40
2023-03-04T21:34:49.223Z,39.30
2023-03-04T21:36:51.208Z,39.30
2023-03-04T21:38:53.307Z,39.30
2023-03-04T21:40:55.101Z,39.30
2023-03-04T21:42:56.915Z,39.30
2023-03-04T21:44:58.755Z,39.20
2023-03-04T21:47:01.304Z,39.10
2023-03-04T21:49:03.959Z,39.00
2023-03-04T21:51:06.957Z,39.10
2023-03-04T21:53:08.699Z,39.00
2023-03-04T21:55:10.508Z,39.10
2023-03-04T21:57:12.565Z,39.10
2023-03-04T21:59:14.998Z,39.00
2023-03-04T22:01:18.587Z,39.00
2023-03-04T22:03:21.016Z,39.00
2023-03-04T22:05:22.789Z,39.00
2023-03-04T22:07:24.561Z,39.00
2023-03-04T22:09:26.413Z,38.90
2023-03-04T22:11:28.606Z,38.90
2023-03-04T22:13:30.432Z,39.00
2023-03-04T22:15:32.703Z,39.00
2023-03-04T22:17:34.492Z,38.90
2023-03-04T22:19:36.274Z,38.80
2023-03-04T22:21:38.075Z,38.80
2023-03-04T22:23:40.187Z,38.90
2023-03-04T22:25:41.971Z,38.90
2023-03-04T22:27:43.798Z,38.80
2023-03-04T22:29:45.599Z,38.70
2023-03-04T22:31:47.412Z,39.40
2023-03-04T22:33:49.226Z,38.80
2023-03-04T22:35:51.569Z,39.00
2023-03-04T22:37:53.718Z,38.70
2023-03-04T22:39:56.717Z,38.70
2023-03-04T22:41:58.514Z,38.60
2023-03-04T22:44:00.464Z,38.70
2023-03-04T22:46:10.631Z,38.80
2023-03-04T22:48:12.415Z,38.60
2023-03-04T22:50:14.240Z,38.50
2023-03-04T22:52:16.029Z,38.60
2023-03-04T22:54:18.406Z,38.60
2023-03-04T22:56:20.293Z,38.50
2023-03-04T22:58:22.086Z,38.80
2023-03-04T23:00:27.527Z,38.50
2023-03-04T23:02:29.404Z,38.60
2023-03-04T23:04:31.298Z,38.60
2023-03-04T23:06:33.483Z,38.50
2023-03-04T23:08:36.344Z,38.40
2023-03-04T23:10:40.806Z,38.50
2023-03-04T23:12:43.032Z,38.50
2023-03-04T23:14:44.921Z,39.10
2023-03-04T23:16:46.810Z,38.60
2023-03-04T23:18:50.213Z,38.50
2023-03-04T23:20:52.005Z,38.40
2023-03-04T23:22:53.790Z,38.50
2023-03-04T23:24:55.558Z,38.50
2023-03-04T23:26:57.341Z,38.40
2023-03-04T23:29:00.194Z,38.40
2023-03-04T23:31:03.660Z,38.40
2023-03-04T23:33:06.768Z,38.30
2023-03-04T23:35:08.909Z,38.50
2023-03-04T23:37:10.618Z,38.60
2023-03-04T23:39:12.398Z,38.30
2023-03-04T23:41:16.066Z,38.50
2023-03-04T23:43:17.820Z,38.30
2023-03-04T23:45:19.699Z,38.30
2023-03-04T23:47:21.450Z,38.40
2023-03-04T23:49:23.246Z,38.30
2023-03-04T23:51:26.560Z,38.30
2023-03-04T23:53:28.380Z,38.40
2023-03-04T23:55:30.167Z,38.40
2023-03-04T23:57:31.952Z,38.20
2023-03-04T23:59:33.658Z,38.20
